sensor_id;sensor_type;location;lat;lon;timestamp;pressure;altitude;pressure_sealevel;temperature;humidity
8705;BME280;4389;41.932;25.904;2023-02-14T00:01:21;102070.94;;;-1.78;88.59
8705;BME280;4389;41.932;25.904;2023-02-14T00:03:48;102071.91;;;-1.88;88.43
8705;BME280;4389;41.932;25.904;2023-02-14T00:06:15;102065.84;;;-1.86;88.76
8705;BME280;4389;41.932;25.904;2023-02-14T00:08:42;102059.19;;;-2.06;88.80
8705;BME280;4389;41.932;25.904;2023-02-14T00:11:10;102065.34;;;-2.13;88.84
8705;BME280;4389;41.932;25.904;2023-02-14T00:13:38;102076.69;;;-2.26;89.27
8705;BME280;4389;41.932;25.904;2023-02-14T00:16:26;102074.09;;;-2.23;88.70
8705;BME280;4389;41.932;25.904;2023-02-14T00:18:51;102066.31;;;-2.23;88.68
8705;BME280;4389;41.932;25.904;2023-02-14T00:21:31;102077.69;;;-2.36;89.72
8705;BME280;4389;41.932;25.904;2023-02-14T00:24:00;102074.22;;;-2.38;90.04
8705;BME280;4389;41.932;25.904;2023-02-14T00:26:27;102075.88;;;-2.28;90.40
8705;BME280;4389;41.932;25.904;2023-02-14T00:28:54;102086.13;;;-2.16;90.39
8705;BME280;4389;41.932;25.904;2023-02-14T00:31:21;102091.38;;;-2.25;89.53
8705;BME280;4389;41.932;25.904;2023-02-14T00:33:49;102086.34;;;-2.39;89.66
8705;BME280;4389;41.932;25.904;2023-02-14T00:36:17;102075.03;;;-2.32;89.66
8705;BME280;4389;41.932;25.904;2023-02-14T00:38:45;102074.16;;;-2.29;89.78
8705;BME280;4389;41.932;25.904;2023-02-14T00:41:12;102076.75;;;-2.29;89.59
8705;BME280;4389;41.932;25.904;2023-02-14T00:43:44;102077.69;;;-2.39;89.55
8705;BME280;4389;41.932;25.904;2023-02-14T00:46:11;102083.03;;;-2.54;90.10
8705;BME280;4389;41.932;25.904;2023-02-14T00:48:38;102083.19;;;-2.69;90.31
8705;BME280;4389;41.932;25.904;2023-02-14T00:51:07;102089.41;;;-2.91;91.32
8705;BME280;4389;41.932;25.904;2023-02-14T00:53:34;102086.66;;;-2.70;91.86
8705;BME280;4389;41.932;25.904;2023-02-14T00:56:01;102083.28;;;-2.81;92.08
8705;BME280;4389;41.932;25.904;2023-02-14T00:58:28;102083.19;;;-2.66;92.19
8705;BME280;4389;41.932;25.904;2023-02-14T01:00:55;102087.28;;;-2.46;91.84
8705;BME280;4389;41.932;25.904;2023-02-14T01:03:21;102084.75;;;-2.53;91.55
8705;BME280;4389;41.932;25.904;2023-02-14T01:05:49;102077.03;;;-2.58;91.76
8705;BME280;4389;41.932;25.904;2023-02-14T01:08:18;102071.75;;;-2.49;92.07
8705;BME280;4389;41.932;25.904;2023-02-14T01:10:45;102068.22;;;-2.42;91.65
8705;BME280;4389;41.932;25.904;2023-02-14T01:13:12;102077.66;;;-2.33;91.40
8705;BME280;4389;41.932;25.904;2023-02-14T01:15:41;102072.56;;;-2.41;90.95
8705;BME280;4389;41.932;25.904;2023-02-14T01:18:08;102065.63;;;-2.40;90.38
8705;BME280;4389;41.932;25.904;2023-02-14T01:20:35;102060.44;;;-2.37;90.02
8705;BME280;4389;41.932;25.904;2023-02-14T01:23:03;102054.31;;;-2.32;89.66
8705;BME280;4389;41.932;25.904;2023-02-14T01:25:31;102052.72;;;-2.43;89.80
8705;BME280;4389;41.932;25.904;2023-02-14T01:27:58;102054.56;;;-2.54;89.59
8705;BME280;4389;41.932;25.904;2023-02-14T01:30:25;102059.84;;;-2.65;89.17
8705;BME280;4389;41.932;25.904;2023-02-14T01:32:52;102067.84;;;-2.87;89.28
8705;BME280;4389;41.932;25.904;2023-02-14T01:35:18;102071.41;;;-3.03;90.14
8705;BME280;4389;41.932;25.904;2023-02-14T01:37:45;102058.53;;;-3.11;90.76
8705;BME280;4389;41.932;25.904;2023-02-14T01:40:13;102055.81;;;-2.94;91.04
8705;BME280;4389;41.932;25.904;2023-02-14T01:42:41;102048.97;;;-3.01;90.89
8705;BME280;4389;41.932;25.904;2023-02-14T01:45:14;102043.81;;;-3.01;90.91
8705;BME280;4389;41.932;25.904;2023-02-14T01:47:43;102053.19;;;-2.91;90.49
8705;BME280;4389;41.932;25.904;2023-02-14T01:50:14;102055.06;;;-3.10;90.68
8705;BME280;4389;41.932;25.904;2023-02-14T01:52:46;102045.66;;;-3.18;91.49
8705;BME280;4389;41.932;25.904;2023-02-14T01:55:18;102044.91;;;-3.34;92.10
8705;BME280;4389;41.932;25.904;2023-02-14T01:57:49;102047.63;;;-3.50;92.84
8705;BME280;4389;41.932;25.904;2023-02-14T02:00:18;102045.00;;;-3.46;93.50
8705;BME280;4389;41.932;25.904;2023-02-14T02:03:04;102037.16;;;-3.35;93.78
8705;BME280;4389;41.932;25.904;2023-02-14T02:05:31;102038.72;;;-3.13;94.17
8705;BME280;4389;41.932;25.904;2023-02-14T02:07:59;102040.28;;;-2.97;93.48
8705;BME280;4389;41.932;25.904;2023-02-14T02:10:27;102033.41;;;-2.98;92.78
8705;BME280;4389;41.932;25.904;2023-02-14T02:12:59;102040.28;;;-2.94;92.57
8705;BME280;4389;41.932;25.904;2023-02-14T02:15:30;102041.88;;;-2.81;92.32
8705;BME280;4389;41.932;25.904;2023-02-14T02:18:02;102034.81;;;-2.67;91.97
8705;BME280;4389;41.932;25.904;2023-02-14T02:20:57;102032.38;;;-2.81;91.06
8705;BME280;4389;41.932;25.904;2023-02-14T02:23:55;102020.28;;;-2.79;91.40
8705;BME280;4389;41.932;25.904;2023-02-14T02:35:49;102014.31;;;-2.88;91.04
8705;BME280;4389;41.932;25.904;2023-02-14T02:38:35;102012.69;;;-2.98;91.11
8705;BME280;4389;41.932;25.904;2023-02-14T02:41:14;102011.88;;;-3.02;91.11
8705;BME280;4389;41.932;25.904;2023-02-14T02:43:52;102009.28;;;-3.00;90.83
8705;BME280;4389;41.932;25.904;2023-02-14T02:46:24;102013.50;;;-2.92;90.87
8705;BME280;4389;41.932;25.904;2023-02-14T02:49:15;102003.97;;;-2.85;90.83
8705;BME280;4389;41.932;25.904;2023-02-14T02:52:08;102003.84;;;-2.73;90.81
8705;BME280;4389;41.932;25.904;2023-02-14T02:54:57;101996.94;;;-2.74;90.78
8705;BME280;4389;41.932;25.904;2023-02-14T02:57:29;101986.50;;;-2.68;90.49
8705;BME280;4389;41.932;25.904;2023-02-14T02:59:56;101987.16;;;-2.50;90.49
8705;BME280;4389;41.932;25.904;2023-02-14T03:02:28;101987.28;;;-2.59;90.05
8705;BME280;4389;41.932;25.904;2023-02-14T03:04:58;101988.38;;;-2.82;89.47
8705;BME280;4389;41.932;25.904;2023-02-14T03:07:33;101987.88;;;-3.19;89.85
8705;BME280;4389;41.932;25.904;2023-02-14T03:10:05;101975.84;;;-3.23;91.14
8705;BME280;4389;41.932;25.904;2023-02-14T03:15:51;101978.09;;;-2.88;90.51
8705;BME280;4389;41.932;25.904;2023-02-14T03:18:36;101982.38;;;-2.86;90.67
8705;BME280;4389;41.932;25.904;2023-02-14T03:21:11;101980.72;;;-2.93;90.29
8705;BME280;4389;41.932;25.904;2023-02-14T03:23:46;101987.50;;;-2.81;90.12
8705;BME280;4389;41.932;25.904;2023-02-14T03:26:19;102000.34;;;-2.69;89.84
8705;BME280;4389;41.932;25.904;2023-02-14T03:28:52;101985.75;;;-2.76;89.45
8705;BME280;4389;41.932;25.904;2023-02-14T03:31:29;101975.38;;;-2.73;89.47
8705;BME280;4389;41.932;25.904;2023-02-14T03:34:00;101974.56;;;-2.78;89.75
8705;BME280;4389;41.932;25.904;2023-02-14T03:36:30;101971.91;;;-2.72;89.51
8705;BME280;4389;41.932;25.904;2023-02-14T03:39:04;101973.66;;;-2.76;89.24
8705;BME280;4389;41.932;25.904;2023-02-14T03:41:37;101990.19;;;-2.90;89.99
8705;BME280;4389;41.932;25.904;2023-02-14T03:44:08;101976.41;;;-2.92;90.20
8705;BME280;4389;41.932;25.904;2023-02-14T03:46:39;101974.66;;;-2.87;89.99
8705;BME280;4389;41.932;25.904;2023-02-14T03:49:11;101971.19;;;-2.86;90.34
8705;BME280;4389;41.932;25.904;2023-02-14T03:51:40;101963.59;;;-3.01;90.52
8705;BME280;4389;41.932;25.904;2023-02-14T03:54:12;101975.03;;;-3.29;91.05
8705;BME280;4389;41.932;25.904;2023-02-14T03:56:42;101966.41;;;-3.28;91.59
8705;BME280;4389;41.932;25.904;2023-02-14T03:59:14;101978.44;;;-3.24;91.30
8705;BME280;4389;41.932;25.904;2023-02-14T04:01:45;101983.59;;;-3.21;91.34
8705;BME280;4389;41.932;25.904;2023-02-14T04:04:15;101966.31;;;-3.19;91.38
8705;BME280;4389;41.932;25.904;2023-02-14T04:06:43;101949.03;;;-3.14;91.71
8705;BME280;4389;41.932;25.904;2023-02-14T04:09:12;101966.16;;;-3.01;91.47
8705;BME280;4389;41.932;25.904;2023-02-14T04:11:40;101959.25;;;-3.02;91.54
8705;BME280;4389;41.932;25.904;2023-02-14T04:14:06;101960.94;;;-2.98;91.61
8705;BME280;4389;41.932;25.904;2023-02-14T04:16:33;101963.50;;;-2.95;91.34
8705;BME280;4389;41.932;25.904;2023-02-14T04:19:21;101970.41;;;-2.97;91.55
8705;BME280;4389;41.932;25.904;2023-02-14T04:21:50;101968.03;;;-3.17;91.37
8705;BME280;4389;41.932;25.904;2023-02-14T04:24:18;101960.25;;;-3.17;91.92
8705;BME280;4389;41.932;25.904;2023-02-14T04:26:45;101950.75;;;-3.13;92.00
8705;BME280;4389;41.932;25.904;2023-02-14T04:29:34;101952.41;;;-3.09;92.10
8705;BME280;4389;41.932;25.904;2023-02-14T04:32:02;101953.28;;;-3.10;91.73
8705;BME280;4389;41.932;25.904;2023-02-14T04:34:29;101950.75;;;-3.13;91.56
8705;BME280;4389;41.932;25.904;2023-02-14T04:36:56;101941.22;;;-3.08;91.80
8705;BME280;4389;41.932;25.904;2023-02-14T04:39:24;101942.06;;;-3.09;91.67
8705;BME280;4389;41.932;25.904;2023-02-14T04:41:51;101943.88;;;-3.17;91.39
8705;BME280;4389;41.932;25.904;2023-02-14T04:44:18;101948.31;;;-3.27;91.52
8705;BME280;4389;41.932;25.904;2023-02-14T04:46:45;101937.09;;;-3.26;91.50
8705;BME280;4389;41.932;25.904;2023-02-14T04:49:13;101935.31;;;-3.22;91.71
8705;BME280;4389;41.932;25.904;2023-02-14T04:51:40;101929.22;;;-3.15;91.72
8705;BME280;4389;41.932;25.904;2023-02-14T04:54:07;101929.22;;;-3.18;91.96
8705;BME280;4389;41.932;25.904;2023-02-14T04:56:35;101923.13;;;-3.11;92.06
8705;BME280;4389;41.932;25.904;2023-02-14T04:59:02;101913.66;;;-3.12;91.39
8705;BME280;4389;41.932;25.904;2023-02-14T05:01:29;101901.53;;;-3.07;90.93
8705;BME280;4389;41.932;25.904;2023-02-14T05:03:56;101886.78;;;-2.99;91.14
8705;BME280;4389;41.932;25.904;2023-02-14T05:06:23;101902.31;;;-3.02;90.79
8705;BME280;4389;41.932;25.904;2023-02-14T05:08:49;101908.44;;;-3.09;90.63
8705;BME280;4389;41.932;25.904;2023-02-14T05:11:16;101904.28;;;-3.22;90.75
8705;BME280;4389;41.932;25.904;2023-02-14T05:13:44;101900.66;;;-3.09;90.69
8705;BME280;4389;41.932;25.904;2023-02-14T05:16:11;101900.94;;;-3.33;90.47
8705;BME280;4389;41.932;25.904;2023-02-14T05:18:38;101894.94;;;-3.38;90.90
8705;BME280;4389;41.932;25.904;2023-02-14T05:21:05;101892.44;;;-3.47;91.58
8705;BME280;4389;41.932;25.904;2023-02-14T05:23:32;101894.91;;;-3.34;91.83
8705;BME280;4389;41.932;25.904;2023-02-14T05:25:58;101889.66;;;-3.28;91.67
8705;BME280;4389;41.932;25.904;2023-02-14T05:28:25;101899.84;;;-3.13;91.56
8705;BME280;4389;41.932;25.904;2023-02-14T05:30:53;101906.03;;;-3.27;91.10
8705;BME280;4389;41.932;25.904;2023-02-14T05:33:21;101903.47;;;-3.29;91.23
8705;BME280;4389;41.932;25.904;2023-02-14T05:35:48;101891.25;;;-3.15;91.57
8705;BME280;4389;41.932;25.904;2023-02-14T05:38:15;101896.41;;;-3.12;91.30
8705;BME280;4389;41.932;25.904;2023-02-14T05:40:42;101895.53;;;-3.11;91.56
8705;BME280;4389;41.932;25.904;2023-02-14T05:43:09;101895.59;;;-3.15;91.48
8705;BME280;4389;41.932;25.904;2023-02-14T05:45:37;101904.19;;;-3.13;91.77
8705;BME280;4389;41.932;25.904;2023-02-14T05:48:05;101906.72;;;-3.07;91.68
8705;BME280;4389;41.932;25.904;2023-02-14T05:50:32;101910.88;;;-2.94;91.98
8705;BME280;4389;41.932;25.904;2023-02-14T05:52:59;101910.78;;;-2.88;91.87
8705;BME280;4389;41.932;25.904;2023-02-14T05:55:26;101909.78;;;-2.75;91.70
8705;BME280;4389;41.932;25.904;2023-02-14T05:57:53;101908.81;;;-2.65;91.52
8705;BME280;4389;41.932;25.904;2023-02-14T06:00:21;101895.63;;;-2.47;90.94
8705;BME280;4389;41.932;25.904;2023-02-14T06:02:48;101893.72;;;-2.35;90.34
8705;BME280;4389;41.932;25.904;2023-02-14T06:05:16;101889.09;;;-2.13;90.07
8705;BME280;4389;41.932;25.904;2023-02-14T06:07:44;101892.50;;;-2.08;89.39
8705;BME280;4389;41.932;25.904;2023-02-14T06:10:15;101893.34;;;-2.08;88.92
8705;BME280;4389;41.932;25.904;2023-02-14T06:12:42;101891.63;;;-2.10;88.99
8705;BME280;4389;41.932;25.904;2023-02-14T06:15:09;101889.97;;;-2.13;89.76
8705;BME280;4389;41.932;25.904;2023-02-14T06:17:36;101894.28;;;-2.13;90.02
8705;BME280;4389;41.932;25.904;2023-02-14T06:20:03;101899.38;;;-2.07;90.27
8705;BME280;4389;41.932;25.904;2023-02-14T06:22:31;101890.34;;;-1.82;90.65
8705;BME280;4389;41.932;25.904;2023-02-14T06:24:58;101888.47;;;-1.74;90.09
8705;BME280;4389;41.932;25.904;2023-02-14T06:27:25;101883.00;;;-1.56;89.67
8705;BME280;4389;41.932;25.904;2023-02-14T06:29:52;101880.94;;;-1.36;89.66
8705;BME280;4389;41.932;25.904;2023-02-14T06:32:19;101873.09;;;-1.33;88.86
8705;BME280;4389;41.932;25.904;2023-02-14T06:34:45;101872.09;;;-1.26;89.07
8705;BME280;4389;41.932;25.904;2023-02-14T06:37:12;101863.19;;;-1.13;88.75
8705;BME280;4389;41.932;25.904;2023-02-14T06:39:40;101862.00;;;-0.97;88.42
8705;BME280;4389;41.932;25.904;2023-02-14T06:42:07;101866.31;;;-0.96;87.53
8705;BME280;4389;41.932;25.904;2023-02-14T06:44:34;101873.91;;;-0.86;87.07
8705;BME280;4389;41.932;25.904;2023-02-14T06:47:01;101871.88;;;-0.72;86.88
8705;BME280;4389;41.932;25.904;2023-02-14T06:49:28;101875.31;;;-0.70;86.80
8705;BME280;4389;41.932;25.904;2023-02-14T06:51:55;101881.56;;;-0.80;87.33
8705;BME280;4389;41.932;25.904;2023-02-14T06:54:22;101880.31;;;-0.61;88.07
8705;BME280;4389;41.932;25.904;2023-02-14T06:56:50;101875.59;;;-0.42;87.07
8705;BME280;4389;41.932;25.904;2023-02-14T06:59:17;101865.06;;;-0.36;87.02
8705;BME280;4389;41.932;25.904;2023-02-14T07:01:44;101865.13;;;-0.39;86.28
8705;BME280;4389;41.932;25.904;2023-02-14T07:04:10;101867.44;;;-0.26;86.98
8705;BME280;4389;41.932;25.904;2023-02-14T07:06:37;101864.59;;;-0.15;86.59
8705;BME280;4389;41.932;25.904;2023-02-14T07:09:04;101872.78;;;0.04;85.69
8705;BME280;4389;41.932;25.904;2023-02-14T07:11:31;101875.16;;;0.15;86.35
8705;BME280;4389;41.932;25.904;2023-02-14T07:14:00;101874.69;;;0.33;86.45
8705;BME280;4389;41.932;25.904;2023-02-14T07:16:27;101871.97;;;0.37;86.64
8705;BME280;4389;41.932;25.904;2023-02-14T07:18:53;101870.13;;;0.42;87.04
8705;BME280;4389;41.932;25.904;2023-02-14T07:21:20;101868.75;;;0.61;87.61
8705;BME280;4389;41.932;25.904;2023-02-14T07:23:47;101876.09;;;0.79;88.00
8705;BME280;4389;41.932;25.904;2023-02-14T07:26:14;101873.28;;;0.87;88.09
8705;BME280;4389;41.932;25.904;2023-02-14T07:28:43;101864.41;;;0.94;88.09
8705;BME280;4389;41.932;25.904;2023-02-14T07:31:11;101873.47;;;1.11;88.26
8705;BME280;4389;41.932;25.904;2023-02-14T07:33:38;101870.41;;;1.28;87.47
8705;BME280;4389;41.932;25.904;2023-02-14T07:36:05;101862.06;;;1.44;87.28
8705;BME280;4389;41.932;25.904;2023-02-14T07:38:34;101866.66;;;1.65;86.83
8705;BME280;4389;41.932;25.904;2023-02-14T07:41:01;101869.81;;;1.76;85.94
8705;BME280;4389;41.932;25.904;2023-02-14T07:43:28;101862.50;;;1.87;84.81
8705;BME280;4389;41.932;25.904;2023-02-14T07:45:58;101853.69;;;1.91;85.08
8705;BME280;4389;41.932;25.904;2023-02-14T07:48:27;101847.03;;;2.09;84.44
8705;BME280;4389;41.932;25.904;2023-02-14T07:50:54;101843.00;;;2.25;83.39
8705;BME280;4389;41.932;25.904;2023-02-14T07:53:22;101840.16;;;2.32;82.24
8705;BME280;4389;41.932;25.904;2023-02-14T07:55:48;101835.69;;;2.36;81.65
8705;BME280;4389;41.932;25.904;2023-02-14T07:58:16;101829.09;;;2.50;81.77
8705;BME280;4389;41.932;25.904;2023-02-14T08:00:43;101832.19;;;2.61;81.92
8705;BME280;4389;41.932;25.904;2023-02-14T08:03:10;101841.44;;;2.94;80.09
8705;BME280;4389;41.932;25.904;2023-02-14T08:05:39;101842.94;;;3.01;79.81
8705;BME280;4389;41.932;25.904;2023-02-14T08:08:06;101847.41;;;3.22;79.72
8705;BME280;4389;41.932;25.904;2023-02-14T08:10:34;101841.53;;;3.39;79.54
8705;BME280;4389;41.932;25.904;2023-02-14T08:13:01;101845.19;;;3.58;80.01
8705;BME280;4389;41.932;25.904;2023-02-14T08:15:30;101850.94;;;3.67;79.68
8705;BME280;4389;41.932;25.904;2023-02-14T08:18:14;101861.03;;;3.76;78.57
8705;BME280;4389;41.932;25.904;2023-02-14T08:20:44;101858.19;;;3.82;77.39
8705;BME280;4389;41.932;25.904;2023-02-14T08:23:11;101850.50;;;3.99;78.37
8705;BME280;4389;41.932;25.904;2023-02-14T08:25:38;101849.16;;;4.11;78.83
8705;BME280;4389;41.932;25.904;2023-02-14T08:28:05;101845.09;;;4.25;77.91
8705;BME280;4389;41.932;25.904;2023-02-14T08:30:32;101847.06;;;4.40;77.62
8705;BME280;4389;41.932;25.904;2023-02-14T08:33:01;101845.75;;;4.50;76.93
8705;BME280;4389;41.932;25.904;2023-02-14T08:35:27;101854.06;;;4.81;75.60
8705;BME280;4389;41.932;25.904;2023-02-14T08:37:56;101854.88;;;5.01;74.28
8705;BME280;4389;41.932;25.904;2023-02-14T08:40:23;101847.81;;;5.22;73.29
8705;BME280;4389;41.932;25.904;2023-02-14T08:42:50;101840.28;;;5.34;72.22
8705;BME280;4389;41.932;25.904;2023-02-14T08:45:17;101843.56;;;5.58;71.68
8705;BME280;4389;41.932;25.904;2023-02-14T08:47:44;101856.41;;;6.01;67.49
8705;BME280;4389;41.932;25.904;2023-02-14T08:50:13;101851.75;;;6.41;66.28
8705;BME280;4389;41.932;25.904;2023-02-14T08:52:41;101846.97;;;6.49;63.81
8705;BME280;4389;41.932;25.904;2023-02-14T08:55:11;101842.69;;;6.64;63.67
8705;BME280;4389;41.932;25.904;2023-02-14T08:57:38;101833.56;;;6.71;63.23
8705;BME280;4389;41.932;25.904;2023-02-14T09:00:06;101840.56;;;6.72;62.99
8705;BME280;4389;41.932;25.904;2023-02-14T09:02:34;101819.75;;;6.84;64.10
8705;BME280;4389;41.932;25.904;2023-02-14T09:05:01;101817.66;;;6.74;63.57
8705;BME280;4389;41.932;25.904;2023-02-14T09:07:27;101818.28;;;6.79;62.24
8705;BME280;4389;41.932;25.904;2023-02-14T09:09:54;101806.34;;;6.89;62.03
8705;BME280;4389;41.932;25.904;2023-02-14T09:12:23;101799.53;;;6.85;62.35
8705;BME280;4389;41.932;25.904;2023-02-14T09:14:49;101806.03;;;6.95;62.07
8705;BME280;4389;41.932;25.904;2023-02-14T09:17:16;101824.66;;;7.07;60.74
8705;BME280;4389;41.932;25.904;2023-02-14T09:19:43;101814.19;;;7.06;60.42
8705;BME280;4389;41.932;25.904;2023-02-14T09:22:10;101800.88;;;7.09;60.72
8705;BME280;4389;41.932;25.904;2023-02-14T09:24:38;101797.94;;;7.30;61.00
8705;BME280;4389;41.932;25.904;2023-02-14T09:27:05;101806.44;;;7.35;59.73
8705;BME280;4389;41.932;25.904;2023-02-14T09:29:34;101804.94;;;7.47;58.51
8705;BME280;4389;41.932;25.904;2023-02-14T09:32:01;101808.78;;;7.57;58.18
8705;BME280;4389;41.932;25.904;2023-02-14T09:34:28;101811.50;;;7.55;57.03
8705;BME280;4389;41.932;25.904;2023-02-14T09:36:55;101803.72;;;7.52;57.80
8705;BME280;4389;41.932;25.904;2023-02-14T09:39:39;101805.22;;;7.58;57.63
8705;BME280;4389;41.932;25.904;2023-02-14T09:42:18;101801.19;;;7.66;58.22
8705;BME280;4389;41.932;25.904;2023-02-14T09:44:51;101797.97;;;7.77;57.44
8705;BME280;4389;41.932;25.904;2023-02-14T09:47:24;101812.41;;;7.85;57.29
8705;BME280;4389;41.932;25.904;2023-02-14T09:49:54;101809.19;;;7.96;57.24
8705;BME280;4389;41.932;25.904;2023-02-14T09:52:26;101793.91;;;7.87;57.11
8705;BME280;4389;41.932;25.904;2023-02-14T09:54:56;101781.47;;;7.89;57.64
8705;BME280;4389;41.932;25.904;2023-02-14T09:57:34;101773.44;;;8.06;57.24
8705;BME280;4389;41.932;25.904;2023-02-14T10:00:13;101776.53;;;8.14;57.30
8705;BME280;4389;41.932;25.904;2023-02-14T10:02:49;101776.19;;;8.04;56.75
8705;BME280;4389;41.932;25.904;2023-02-14T10:05:21;101762.41;;;8.15;56.99
8705;BME280;4389;41.932;25.904;2023-02-14T10:08:06;101762.09;;;8.21;56.12
8705;BME280;4389;41.932;25.904;2023-02-14T10:10:42;101751.06;;;8.13;56.31
8705;BME280;4389;41.932;25.904;2023-02-14T10:13:14;101752.38;;;8.06;56.69
8705;BME280;4389;41.932;25.904;2023-02-14T10:15:46;101746.75;;;8.12;57.16
8705;BME280;4389;41.932;25.904;2023-02-14T10:18:18;101739.09;;;8.07;55.50
8705;BME280;4389;41.932;25.904;2023-02-14T10:20:48;101734.34;;;8.14;55.66
8705;BME280;4389;41.932;25.904;2023-02-14T10:23:26;101726.31;;;8.31;55.35
8705;BME280;4389;41.932;25.904;2023-02-14T10:25:59;101730.66;;;8.46;54.92
8705;BME280;4389;41.932;25.904;2023-02-14T10:28:31;101723.72;;;8.45;54.45
8705;BME280;4389;41.932;25.904;2023-02-14T10:31:11;101711.63;;;8.41;55.13
8705;BME280;4389;41.932;25.904;2023-02-14T10:33:51;101715.22;;;8.40;55.04
8705;BME280;4389;41.932;25.904;2023-02-14T10:36:28;101715.72;;;8.60;54.93
8705;BME280;4389;41.932;25.904;2023-02-14T10:39:01;101703.56;;;8.72;54.04
8705;BME280;4389;41.932;25.904;2023-02-14T10:41:40;101697.72;;;8.81;53.91
8705;BME280;4389;41.932;25.904;2023-02-14T10:44:23;101703.94;;;8.80;53.92
8705;BME280;4389;41.932;25.904;2023-02-14T10:46:58;101696.59;;;8.85;54.55
8705;BME280;4389;41.932;25.904;2023-02-14T10:49:38;101707.63;;;8.91;53.70
8705;BME280;4389;41.932;25.904;2023-02-14T10:52:13;101703.56;;;8.99;53.45
8705;BME280;4389;41.932;25.904;2023-02-14T10:54:42;101702.97;;;9.08;53.08
8705;BME280;4389;41.932;25.904;2023-02-14T10:57:13;101693.00;;;9.13;52.13
8705;BME280;4389;41.932;25.904;2023-02-14T10:59:48;101681.50;;;9.00;52.54
8705;BME280;4389;41.932;25.904;2023-02-14T11:02:23;101680.84;;;9.11;52.73
8705;BME280;4389;41.932;25.904;2023-02-14T11:04:51;101676.09;;;9.16;52.72
8705;BME280;4389;41.932;25.904;2023-02-14T11:07:20;101669.59;;;9.21;52.12
8705;BME280;4389;41.932;25.904;2023-02-14T11:09:47;101678.31;;;9.36;51.29
8705;BME280;4389;41.932;25.904;2023-02-14T11:12:35;101673.41;;;9.30;51.10
8705;BME280;4389;41.932;25.904;2023-02-14T11:15:16;101663.66;;;9.44;49.29
8705;BME280;4389;41.932;25.904;2023-02-14T11:17:47;101657.38;;;9.33;50.09
8705;BME280;4389;41.932;25.904;2023-02-14T11:20:23;101645.56;;;9.38;49.83
8705;BME280;4389;41.932;25.904;2023-02-14T11:22:50;101645.56;;;9.38;50.32
8705;BME280;4389;41.932;25.904;2023-02-14T11:25:20;101649.19;;;9.50;49.96
8705;BME280;4389;41.932;25.904;2023-02-14T11:27:49;101647.38;;;9.64;49.04
8705;BME280;4389;41.932;25.904;2023-02-14T11:30:29;101647.06;;;9.69;48.84
8705;BME280;4389;41.932;25.904;2023-02-14T11:32:58;101638.59;;;9.76;47.71
8705;BME280;4389;41.932;25.904;2023-02-14T11:35:27;101636.78;;;9.64;48.30
8705;BME280;4389;41.932;25.904;2023-02-14T11:38:00;101623.34;;;9.55;48.21
8705;BME280;4389;41.932;25.904;2023-02-14T11:40:29;101619.25;;;9.63;49.00
8705;BME280;4389;41.932;25.904;2023-02-14T11:42:59;101618.72;;;9.71;48.51
8705;BME280;4389;41.932;25.904;2023-02-14T11:45:30;101610.59;;;9.74;48.43
8705;BME280;4389;41.932;25.904;2023-02-14T11:48:16;101607.84;;;9.75;48.52
8705;BME280;4389;41.932;25.904;2023-02-14T11:50:43;101609.19;;;9.68;48.41
8705;BME280;4389;41.932;25.904;2023-02-14T11:53:21;101616.28;;;9.68;48.69
8705;BME280;4389;41.932;25.904;2023-02-14T11:55:51;101615.59;;;9.78;47.11
8705;BME280;4389;41.932;25.904;2023-02-14T11:58:29;101611.03;;;9.93;47.31
8705;BME280;4389;41.932;25.904;2023-02-14T12:00:56;101602.00;;;10.09;47.31
8705;BME280;4389;41.932;25.904;2023-02-14T12:03:26;101591.53;;;10.20;46.51
8705;BME280;4389;41.932;25.904;2023-02-14T12:05:54;101595.56;;;10.26;45.61
8705;BME280;4389;41.932;25.904;2023-02-14T12:08:27;101593.13;;;10.35;44.44
8705;BME280;4389;41.932;25.904;2023-02-14T12:11:04;101593.13;;;10.35;43.85
8705;BME280;4389;41.932;25.904;2023-02-14T12:13:31;101578.19;;;10.34;43.92
8705;BME280;4389;41.932;25.904;2023-02-14T12:15:59;101577.66;;;10.29;44.68
8705;BME280;4389;41.932;25.904;2023-02-14T12:18:49;101571.66;;;10.27;44.88
8705;BME280;4389;41.932;25.904;2023-02-14T12:21:37;101563.06;;;10.36;45.34
8705;BME280;4389;41.932;25.904;2023-02-14T12:24:14;101555.03;;;10.38;44.77
8705;BME280;4389;41.932;25.904;2023-02-14T12:26:44;101555.13;;;10.36;44.52
8705;BME280;4389;41.932;25.904;2023-02-14T12:29:18;101547.59;;;10.43;44.88
8705;BME280;4389;41.932;25.904;2023-02-14T12:31:48;101543.97;;;10.44;44.22
8705;BME280;4389;41.932;25.904;2023-02-14T12:34:17;101549.91;;;10.47;43.88
8705;BME280;4389;41.932;25.904;2023-02-14T12:36:59;101531.28;;;10.49;43.69
8705;BME280;4389;41.932;25.904;2023-02-14T12:39:34;101531.91;;;10.52;43.79
8705;BME280;4389;41.932;25.904;2023-02-14T12:42:13;101531.03;;;10.64;44.06
8705;BME280;4389;41.932;25.904;2023-02-14T12:44:52;101540.91;;;10.62;43.65
8705;BME280;4389;41.932;25.904;2023-02-14T12:47:30;101537.63;;;10.59;43.71
8705;BME280;4389;41.932;25.904;2023-02-14T12:50:27;101533.25;;;10.70;43.66
8705;BME280;4389;41.932;25.904;2023-02-14T12:53:23;101530.94;;;10.66;43.63
8705;BME280;4389;41.932;25.904;2023-02-14T12:56:00;101527.81;;;10.72;44.16
8705;BME280;4389;41.932;25.904;2023-02-14T12:58:41;101536.69;;;10.83;42.85
8705;BME280;4389;41.932;25.904;2023-02-14T13:01:30;101528.06;;;10.69;42.95
8705;BME280;4389;41.932;25.904;2023-02-14T13:04:21;101529.84;;;10.68;43.72
8705;BME280;4389;41.932;25.904;2023-02-14T13:06:59;101541.13;;;10.83;43.86
8705;BME280;4389;41.932;25.904;2023-02-14T13:09:35;101546.34;;;10.84;42.99
8705;BME280;4389;41.932;25.904;2023-02-14T13:12:14;101534.97;;;10.82;42.95
8705;BME280;4389;41.932;25.904;2023-02-14T13:14:56;101529.31;;;10.76;43.75
8705;BME280;4389;41.932;25.904;2023-02-14T13:17:31;101529.19;;;10.77;44.00
8705;BME280;4389;41.932;25.904;2023-02-14T13:20:14;101529.94;;;10.79;43.24
8705;BME280;4389;41.932;25.904;2023-02-14T13:22:48;101538.59;;;10.81;44.56
8705;BME280;4389;41.932;25.904;2023-02-14T13:25:24;101536.69;;;10.83;43.75
8705;BME280;4389;41.932;25.904;2023-02-14T13:27:56;101529.25;;;10.88;44.16
8705;BME280;4389;41.932;25.904;2023-02-14T13:30:27;101530.94;;;10.89;43.20
8705;BME280;4389;41.932;25.904;2023-02-14T13:32:59;101537.91;;;10.90;43.39
8705;BME280;4389;41.932;25.904;2023-02-14T13:35:28;101532.41;;;10.93;43.58
8705;BME280;4389;41.932;25.904;2023-02-14T13:38:01;101534.34;;;10.91;43.26